Flight Track Log - Related Links

Times and Time Zones

All times are in EDT time to prevent confusion due to time zone crossing. See the CPZ5750 flight status page for this flight to view local times or setup timezone preferences in your user account.

Time Position Orientation Groundspeed Altitude Reporting Facility
EDT Latitude Longitude Course Direction KTS MPH feet Rate Location/Type
Thu 05:39:34 PM 44.8667 -93.1333 65° Northeast 178 205 2,700  Level Minneapolis TRACON
Thu 05:40:34 PM 44.8667 -93.0500 90° East 230 265 4,800 1,925 Climbing Minneapolis TRACON
Thu 05:41:48 PM 44.9075 -92.9569 58° Northeast 275 316 7,000 971 Climbing Minneapolis Center
Thu 05:42:50 PM 44.9814 -92.9144 22° Northeast 287 330 7,000 774 Level Minneapolis Center
Thu 05:43:00 PM 45.1163 -92.3185 70° East  Level FlightAware Approximate
Thu 05:43:52 PM 45.0542 -92.8717 23° Northeast 285 328 8,600  Level Minneapolis Center
Thu 05:44:00 PM 45.1543 -92.1662 70° East  Level FlightAware Approximate
Thu 05:44:54 PM 45.1183 -92.8017 38° Northeast 293 337 10,700  Level Minneapolis Center
Thu 05:45:00 PM 45.1992 -92.0191 65° Northeast  Level FlightAware Approximate
Thu 05:45:56 PM 45.1925 -92.7172 39° Northeast 344 396 12,500  Level Minneapolis Center
Thu 05:46:58 PM 45.2567 -92.6097 50° Northeast 363 418 14,500 2,226 Climbing Minneapolis Center
Thu 05:48:00 PM 45.2836 -92.4303 78° East 385 443 17,100 2,160 Climbing Minneapolis Center
Thu 05:49:03 PM 45.3033 -92.2792 79° East 387 445 19,000 1,776 Climbing Minneapolis Center
Thu 05:50:05 PM 45.3258 -92.1206 79° East 405 466 20,800 1,765 Climbing Minneapolis Center
Thu 05:51:19 PM 45.3522 -91.9242 79° East 421 484 23,000 1,721 Climbing Minneapolis Center
Thu 05:52:21 PM 45.3736 -91.7603 79° East 422 486 24,700 1,452 Climbing Minneapolis Center
Thu 05:53:23 PM 45.3975 -91.5958 78° East 425 489 26,000 1,258 Climbing Minneapolis Center
Thu 05:54:25 PM 45.4236 -91.3900 80° East 437 503 27,300 1,015 Climbing Minneapolis Center
Thu 05:55:39 PM 45.4447 -91.2336 79° East 446 513 28,300 1,139 Climbing Minneapolis Center
Thu 05:56:42 PM 45.4619 -90.9850 84° East 449 517 29,900 1,344 Climbing Minneapolis Center
Thu 05:57:44 PM 45.4414 -90.8050 99° East 458 527 31,100 1,113 Climbing Minneapolis Center
Thu 05:58:46 PM 45.4228 -90.6286 98° East 454 522 32,200 968 Climbing Minneapolis Center
Thu 05:59:48 PM 45.4036 -90.4528 99° East 452 520 33,100 823 Climbing Minneapolis Center
Thu 06:00:50 PM 45.3847 -90.2772 99° East 452 520 33,900 610 Climbing Minneapolis Center
Thu 06:02:00 PM 45.3689 -90.0884 99° East  Level Estimated
Thu 06:02:55 PM 45.3403 -89.8906 99° East 454 522 35,000  Level Minneapolis Center
Thu 06:03:57 PM 45.3183 -89.7089 100° East 462 532 35,000  Level Minneapolis Center
Thu 06:04:59 PM 45.2972 -89.5242 99° East 471 542 35,000  Level Minneapolis Center
Thu 06:06:01 PM 45.2744 -89.3406 100° East 475 547 35,000  Level Minneapolis Center
Thu 06:07:03 PM 45.2525 -89.1597 100° East 470 541 35,000  Level Minneapolis Center
Thu 06:08:05 PM 45.2253 -88.9403 100° East 472 543 35,000  Level Minneapolis Center
Thu 06:09:07 PM 45.2028 -88.7583 100° East 473 544 35,000  Level Minneapolis Center
Thu 06:10:09 PM 45.1803 -88.5733 100° East 469 540 35,000  Level Minneapolis Center
Thu 06:11:11 PM 45.1569 -88.3894 100° East 475 547 35,000  Level Minneapolis Center
Thu 06:12:13 PM 45.1328 -88.2075 101° East 472 543 35,000  Level Minneapolis Center
Thu 06:13:15 PM 45.1081 -88.0256 101° East 473 544 35,000  Level Minneapolis Center
Thu 06:14:18 PM 45.0789 -87.8083 101° East 470 541 35,000  Level Minneapolis Center
Thu 06:15:20 PM 45.0550 -87.6269 100° East 470 541 35,000  Level Minneapolis Center
Thu 06:16:22 PM 45.0297 -87.4464 101° East 470 541 35,000  Level Minneapolis Center
Thu 06:17:24 PM 45.0064 -87.2672 100° East 465 535 35,000  Level Minneapolis Center
Thu 06:18:26 PM 44.9808 -87.0883 101° East 466 536 35,000  Level Minneapolis Center
Thu 06:19:28 PM 44.9542 -86.9086 102° East 466 536 35,000  Level Minneapolis Center
Thu 06:20:30 PM 44.9281 -86.7208 101° East 465 535 35,000  Level Minneapolis Center
Thu 06:21:32 PM 44.9014 -86.5397 102° East 470 541 35,000  Level Minneapolis Center
Thu 06:22:34 PM 44.8708 -86.3269 101° East 466 536 35,000  Level Minneapolis Center
Thu 06:23:36 PM 44.8436 -86.1500 102° East 463 533 35,000  Level Minneapolis Center
Thu 06:24:38 PM 44.8167 -85.9722 102° East 464 534 35,000  Level Minneapolis Center
Thu 06:25:41 PM 44.7900 -85.7947 102° East 463 533 35,000  Level Minneapolis Center
Thu 06:26:43 PM 44.7628 -85.6142 102° East 462 532 35,000  Level Minneapolis Center
Thu 06:27:45 PM 44.7356 -85.4411 102° East 454 522 35,000  Level Minneapolis Center
Thu 06:28:47 PM 44.7086 -85.2672 102° East 456 525 35,000  Level Minneapolis Center
Thu 06:29:49 PM 44.6747 -85.0600 103° East 454 522 35,000  Level Minneapolis Center
Thu 06:30:51 PM 44.6483 -84.8900 102° East 448 516 35,000  Level Minneapolis Center
Thu 06:31:53 PM 44.6203 -84.7189 103° East 450 518 35,000  Level Minneapolis Center
Thu 06:32:55 PM 44.5922 -84.5503 103° East 448 516 35,000  Level Minneapolis Center
Thu 06:33:57 PM 44.5644 -84.3800 103° East 447 514 35,000  Level Minneapolis Center
Thu 06:34:59 PM 44.5303 -84.1750 103° East 449 517 35,000  Level Minneapolis Center
Thu 06:36:02 PM 44.5008 -84.0019 103° East 453 521 35,000  Level Minneapolis Center
Thu 06:37:04 PM 44.4725 -83.8308 103° East 454 522 35,000  Level Minneapolis Center
Thu 06:38:07 PM 44.4431 -83.6617 104° East 451 519 35,000  Level Minneapolis Center
Thu 06:39:21 PM 44.4078 -83.4539 103° East 455 524 35,000  Level Minneapolis Center
Thu 06:40:23 PM 44.3764 -83.2806 104° East 458 527 35,000  Level Minneapolis Center
Thu 06:41:15 PM 44.3333 -83.1000 108° East 460 529 35,000  Level Toronto Center
Thu 06:42:15 PM 44.3000 -82.9167 104° East 450 518 35,000  Level Toronto Center
Thu 06:43:15 PM 44.2667 -82.7500 106° East 460 529 35,000  Level Toronto Center
Thu 06:44:15 PM 44.2333 -82.5833 106° East 460 529 35,000  Level Toronto Center
Thu 06:45:15 PM 44.2000 -82.4000 104° East 460 529 35,000  Level Toronto Center
Thu 06:46:15 PM 44.1667 -82.2333 106° East 460 529 35,000  Level Toronto Center
Thu 06:47:15 PM 44.1333 -82.0500 104° East 460 529 35,000  Level Toronto Center
Thu 06:48:15 PM 44.1167 -81.8833 98° East 450 518 35,000  Level Toronto Center
Thu 06:49:15 PM 44.0833 -81.7167 106° East 460 529 35,000  Level Toronto Center
Thu 06:50:15 PM 44.0333 -81.5500 113° Southeast 460 529 35,000  Level Toronto Center
Thu 06:51:15 PM 44.0000 -81.3667 92° East 460 529 35,000  Level Toronto Center
Thu 06:52:15 PM 43.9667 -81.2000 105° East 460 529 35,000  Level Toronto Center
Thu 06:53:15 PM 43.9333 -81.0167 104° East 470 541 35,000  Level Toronto Center
Thu 06:54:15 PM 43.9000 -80.8667 107° East 470 541 35,000  Level Toronto Center
Thu 06:55:15 PM 43.8833 -80.6667 97° East 470 541 35,000  Level Toronto Center
Thu 06:56:15 PM 43.8333 -80.5167 115° Southeast 470 541 35,000  Level Toronto Center
Thu 06:57:15 PM 43.8000 -80.3333 104° East 470 541 35,000  Level Toronto Center
Thu 06:58:15 PM 43.7667 -80.1333 103° East 470 541 35,000  Level Toronto Center
Thu 06:59:15 PM 43.7333 -79.9833 107° East 470 541 35,000  Level Toronto Center
Thu 07:00:15 PM 43.6833 -79.8000 111° Southeast 480 552 35,000  Level Toronto Center
Thu 07:01:15 PM 43.6500 -79.6333 105° East 490 564 35,000  Level Toronto Center
Thu 07:02:15 PM 43.6333 -79.4333 96° East 500 575 35,000  Level Toronto Center
Thu 07:03:15 PM 43.6000 -79.2333 103° East 490 564 35,000  Level Toronto Center
Thu 07:04:15 PM 43.5833 -79.0500 97° East 490 564 35,000  Level Toronto Center
Thu 07:05:15 PM 43.5500 -78.8667 104° East 500 575 35,000  Level Toronto Center
Thu 07:06:15 PM 43.5333 -78.6833 97° East 500 575 35,000  Level Toronto Center
Thu 07:07:15 PM 43.5000 -78.5000 104° East 500 575 35,000  Level Toronto Center
Thu 07:08:15 PM 43.4667 -78.3000 103° East 500 575 35,000 -250 Level Toronto Center
Thu 07:09:15 PM 43.4333 -78.1167 104° East 500 575 34,500 -600 Descending Toronto Center
Thu 07:10:15 PM 43.4167 -77.9333 97° East 510 587 33,800 -800 Descending Toronto Center
Thu 07:11:15 PM 43.3833 -77.7333 103° East 500 575 32,900 -950 Descending Toronto Center
Thu 07:12:15 PM 43.3667 -77.5500 97° East 510 587 31,900 -1,000 Descending Toronto Center
Thu 07:13:15 PM 43.3333 -77.3667 104° East 500 575 30,900 -1,000 Descending Toronto Center
Thu 07:14:15 PM 43.3000 -77.1833 104° East 510 587 29,900 -950 Descending Toronto Center
Thu 07:15:15 PM 43.2833 -76.9833 96° East 500 575 29,000 -450 Descending Toronto Center
Thu 07:16:15 PM 43.2500 -76.8000 104° East 500 575 29,000  Level Toronto Center
Thu 07:17:15 PM 43.2167 -76.6167 104° East 500 575 29,000  Level Toronto Center
Thu 07:18:15 PM 43.1833 -76.4333 104° East 500 575 29,000 -500 Level Toronto Center
Thu 07:19:15 PM 43.1667 -76.2500 97° East 500 575 28,000 -1,135 Descending Toronto Center
Thu 07:20:06 PM 43.1478 -76.1117 101° East 492 566 26,900 -1,568 Descending Boston Center
Thu 07:21:06 PM 43.1181 -75.9306 103° East 487 560 25,100 -1,800 Descending Boston Center
Thu 07:22:06 PM 43.0900 -75.7583 103° East 476 548 23,300 -1,750 Descending Boston Center
Thu 07:23:06 PM 43.0614 -75.5889 103° East 469 540 21,600 -1,700 Descending Boston Center
Thu 07:24:06 PM 43.0344 -75.4256 103° East 451 519 19,900 -1,700 Descending Boston Center
Thu 07:25:06 PM 43.0072 -75.2681 103° East 439 505 18,200 -1,600 Descending Boston Center
Thu 07:26:06 PM 42.9797 -75.1108 103° East 431 496 16,700 -1,500 Descending Boston Center
Thu 07:27:06 PM 42.9561 -74.9622 102° East 420 483 15,200 -1,550 Descending Boston Center
Thu 07:28:06 PM 42.9300 -74.8164 104° East 404 465 13,600 -1,500 Descending Boston Center
Thu 07:29:06 PM 42.9036 -74.6736 104° East 391 450 12,200 -1,300 Descending Boston Center
Thu 07:30:06 PM 42.8814 -74.5369 102° East 374 430 11,000 -800 Descending Boston Center
Thu 07:31:06 PM 42.8481 -74.4083 109° East 374 430 10,600 -750 Descending Boston Center
Thu 07:32:06 PM 42.7956 -74.3133 127° Southeast 323 372 9,500 -1,350 Descending Boston Center
Thu 07:33:06 PM 42.7492 -74.2242 125° Southeast 299 344 7,900 -1,545 Descending Boston Center
Thu 07:34:18 PM 42.7003 -74.1381 128° Southeast 292 336 6,100 -1,318 Descending Boston Center
Thu 07:35:18 PM 42.6706 -74.0383 112° Southeast 272 313 5,000 -800 Descending Boston Center
Thu 07:36:18 PM 42.6508 -73.9475 106° East 259 298 4,500 -974 Descending Boston Center
Thu 07:37:15 PM 42.6417 -73.8625 98° East 195 224 3,100 -1,339 Descending Boston Center
Thu 07:38:10 PM 42.6528 -73.8064 75° East 171 197 2,000 -1,200 Descending Boston Center

Login

Don't have an account? Register now (free) for customized features, flight alerts, and more!